S&P 500   4,544.90
DOW   35,677.02
QQQ   374.10
pixel
pixel
S&P 500   4,544.90
DOW   35,677.02
QQQ   374.10
pixel
pixel
S&P 500   4,544.90
DOW   35,677.02
QQQ   374.10
pixel
pixel
S&P 500   4,544.90
DOW   35,677.02
QQQ   374.10
pixel
pixel
NASDAQ:HBAN

Huntington Bancshares Institutional Ownership

$16.68
+0.19 (+1.15 %)
(As of 10/22/2021 12:00 AM ET)
Add
Compare
Today's Range
$16.56
$16.80
50-Day Range
$14.25
$16.19
52-Week Range
$9.66
$16.91
Volume7.15 million shs
Average Volume14.23 million shs
Market Capitalization$24.63 billion
P/E Ratio11.75
Dividend Yield3.72%
Beta1.33

Institutional Ownership Changes (13F Filings) for Huntington Bancshares (NASDAQ:HBAN)

Institutional Ownership Percentage: 76.75%
Skip Chart & View Institutional Buying and Selling Data

Institutional Buying and Selling by Quarter


Huntington Bancshares (NASDAQ HBAN) Institutional Buying and Selling

Reporting DateHedge FundShares HeldMarket Value% of PortfolioQuarterly Change in SharesOwnership in CompanyDetails
10/22/2021PDS Planning Inc29,692$0.46M0.1%-12.3%0.002%
10/22/2021Cadence Bank NA20,371$0.32M0.1%+4.6%0.001%
10/22/2021Tuttle Capital Management LLC10,960$0.17M0.1%N/A0.001%
10/22/2021Bell Bank324,424$5.02M0.6%+5.8%0.022%
10/22/2021Strs Ohio4,392,916$67.91M0.3%+33.3%0.298%
10/22/2021Tatro Capital LLC26,503$0.41M0.3%+18.6%0.002%
10/22/2021DekaBank Deutsche Girozentrale344,071$5.38M0.0%+42.9%0.023%
10/22/2021Gateway Investment Advisers LLC15,706$0.24M0.0%-98.6%0.001%
10/21/2021Trinity Financial Advisors LLC22,999$0.36M0.2%-12.7%0.002%
10/21/2021Jackson Square Capital LLC91,379$1.41M0.5%+1.0%0.006%
10/21/2021Palouse Capital Management Inc.409,336$6.33M2.8%+2.8%0.028%
10/21/2021Park Avenue Securities LLC68,132$1.05M0.0%+2.3%0.005%
10/21/2021Kestra Private Wealth Services LLC21,768$0.34M0.0%+4.1%0.001%
10/21/2021Hotaling Investment Management LLC55,749$0.86M0.4%+23.3%0.004%
10/21/2021Crossmark Global Holdings Inc.86,488$1.34M0.0%-82.9%0.006%
10/20/2021Garrison Asset Management LLC92,640$1.43M0.9%-1.5%0.006%
10/20/2021Venture Visionary Partners LLC142,894$2.21M0.2%+18.0%0.010%
10/20/2021Chevy Chase Trust Holdings Inc.906,591$14.02M0.0%-3.6%0.061%
10/20/2021Robeco Institutional Asset Management B.V.24,954$0.39M0.0%-87.9%0.002%
10/19/2021Kestra Advisory Services LLC115,240$1.78M0.0%+38.7%0.008%
10/19/2021Arkadios Wealth Advisors45,939$0.71M0.1%+21.2%0.003%
10/19/2021Epiq Partners LLC458,770$7.09M3.3%+683.3%0.031%
10/19/2021Fulcrum Asset Management LLP42,200$0.62M0.3%N/A0.003%
10/19/2021Assenagon Asset Management S.A.38,250$0.59M0.0%+52.0%0.003%
10/19/2021New Mexico Educational Retirement Board96,576$1.49M0.1%-1.9%0.007%
10/19/2021Paragon Capital Management Ltd13,636$0.21M0.0%+10.0%0.001%
10/19/2021Stratos Wealth Advisors LLC12,530$0.19M0.0%+8.9%0.001%
10/19/2021Ellevest Inc.19,999$0.31M0.0%+10.1%0.001%
10/19/2021Sentinel Trust Co. LBA177,858$2.75M0.4%-72.0%0.012%
10/18/2021First Bank & Trust106,825$1.65M0.8%+2.5%0.007%
10/18/2021Clarius Group LLC10,722$0.17M0.0%N/A0.001%
10/18/2021Raymond James Trust N.A.95,305$1.47M0.0%+3.6%0.006%
10/18/2021Nisa Investment Advisors LLC306,604$4.74M0.0%-17.8%0.021%
10/18/2021Symmetry Partners LLC21,228$0.34M0.0%-54.9%0.001%
10/15/2021Pacer Advisors Inc.94,237$1.46M0.0%-36.2%0.006%
10/15/2021Fifth Third Bancorp98,843$1.53M0.0%+44.3%0.007%
10/15/2021City Holding Co.19,257$0.30M0.1%+266.3%0.001%
10/15/2021Fortem Financial Group LLC99,039$1.53M0.8%+1.6%0.007%
10/15/2021NEXT Financial Group Inc12,663$0.20M0.0%-46.4%0.001%
10/15/2021DNB Asset Management AS246,097$3.81M0.0%-33.3%0.017%
10/14/2021Private Advisor Group LLC105,885$1.64M0.0%+63.6%0.007%
10/14/2021BKD Wealth Advisors LLC13,854$0.21M0.0%-7.7%0.001%
10/14/2021Foundry Partners LLC1,472,850$22.77M0.8%N/A0.100%
10/14/2021Manning & Napier Group LLC619,227$9.57M0.1%-1.9%0.042%
10/14/2021TIAA FSB24,956$0.39M0.0%+7.8%0.002%
10/14/2021Canton Hathaway LLC103,393$1.60M0.5%+2,484.8%0.007%
10/14/2021Investors Asset Management of Georgia Inc. GA ADV27,650$0.43M0.2%-3.5%0.002%
10/14/2021Capital Asset Advisory Services LLC37,370$0.58M0.1%-1.9%0.003%
10/13/2021Crossmark Global Holdings Inc.28,133$0.19M0.0%-94.5%0.002%
10/13/2021Everhart Financial Group Inc.57,032$0.88M0.6%+1.4%0.004%
10/13/2021Gilbert & Cook Inc.15,251$0.24M0.0%+4.8%0.001%
10/13/2021Investment Partners LTD.17,632$0.27M0.1%+8.9%0.001%
10/13/2021IFM Investors Pty Ltd190,333$2.94M0.1%+1.5%0.013%
10/12/2021Koshinski Asset Management Inc.58,274$0.90M0.1%+44.4%0.004%
10/12/2021Contravisory Investment Management Inc.379,996$5.88M1.8%-2.0%0.026%
10/12/2021Smith Chas P & Associates PA Cpas22,731$0.35M0.0%-21.5%0.002%
10/12/2021Level Four Financial LLC15,998$0.25M0.1%-8.3%0.001%
10/12/2021Shilanski & Associates Inc.20,262$0.51M0.2%+14.3%0.001%
10/12/2021Pensionfund DSM Netherlands27,000$0.42M0.1%N/A0.002%
10/12/2021First Midwest Bank Trust Division21,950$0.34M0.0%-27.1%0.001%
10/12/2021Cypress Capital Group29,900$0.46M0.1%-7.8%0.002%
10/12/2021Hennessy Advisors Inc.173,000$2.68M0.2%-15.6%0.012%
10/8/2021HBW Advisory Services LLC23,785$0.37M0.1%N/A0.002%
10/8/2021Eidelman Virant Capital63,700$0.99M0.4%+286.1%0.004%
10/8/2021Beese Fulmer Investment Management Inc.277,264$4.29M0.5%-7.8%0.019%
10/8/2021Veriti Management LLC12,392$0.19M0.0%+15.8%0.001%
10/8/2021Carnegie Capital Asset Management LLC536,544$8.30M0.3%+0.9%0.036%
10/8/2021Wedbush Securities Inc.16,400$0.25M0.0%-4.3%0.001%
10/7/2021Moody National Bank Trust Division15,988$0.25M0.0%+38.1%0.001%
10/7/2021Berman Capital Advisors LLC12,320$0.19M0.0%+84.2%0.001%
10/7/2021State of Alaska Department of Revenue723,175$11.18M0.1%+6.0%0.049%
10/6/2021Private Trust Co. NA30,734$0.48M0.1%+3.9%0.002%
10/5/2021Fulton Bank N.A.145,232$2.25M0.1%+4.1%0.010%
10/1/2021Park National Corp OH234,997$3.63M0.2%-4.6%0.016%
9/24/2021Thrivent Financial for Lutherans2,273,902$32.45M0.1%+2,383.0%0.154%
9/13/2021Bank of America Corp DE17,047,591$243.27M0.0%+59.2%1.155%
9/7/2021Newbridge Financial Services Group Inc.9,806$0.14M0.1%+1,128.8%0.001%
9/3/2021Parametric Portfolio Associates LLC6,691,781$95.49M0.0%+38.3%0.453%
8/31/2021Leelyn Smith LLC113,903$1.63M0.5%+886.3%0.008%
8/30/2021B. Metzler seel. Sohn & Co. Holding AG250,120$3.57M0.1%-43.7%0.017%
8/26/2021Comerica Bank603,705$8.83M0.1%+118.2%0.041%
8/25/2021Marshall Wace LLP599,671$8.56M0.0%N/A0.041%
8/25/2021Marshall Wace North America L.P.303,622$4.33M0.0%N/A0.021%
8/24/2021EP Wealth Advisors LLC13,077$0.19M0.0%N/A0.001%
8/24/2021Mariner LLC49,283$0.70M0.0%-57.0%0.003%
8/23/2021Morgan Stanley8,430,924$120.31M0.0%+127.8%0.571%
8/20/2021Stonebridge Capital Advisors LLC2,709$39K0.0%+62.2%0.000%
8/19/2021Thrivent Financial for Lutherans2,248,931$32.09M0.1%+2,355.8%0.152%
8/18/2021Colony Group LLC150,933$2.15M0.0%+157.1%0.010%
8/18/2021Clarkston Capital Partners LLC13,009$0.19M0.0%N/A0.001%
8/17/2021Worldquant Millennium Advisors LLC976,450$13.93M0.3%+2,303.2%0.096%
8/17/2021Wall Street Access Asset Management LLC30,005$0.43M0.2%N/A0.003%
8/17/2021Weiss Multi Strategy Advisers LLC1,308,272$18.67M0.4%+175.3%0.129%
8/17/2021Zacks Investment Management1,587,928$22.66M0.4%+5.3%0.156%
8/17/2021Zeke Capital Advisors LLC59,257$0.85M0.1%N/A0.006%
8/17/2021Beacon Pointe Advisors LLC13,099$0.19M0.0%N/A0.001%
8/17/2021National Pension Service1,686,678$24.07M0.0%+0.2%0.166%
8/17/2021Brookfield Asset Management Inc.760,403$10.85M0.1%N/A0.075%
8/17/2021Invesco Ltd.28,940,105$412.98M0.1%+158.5%2.843%
8/17/2021Mairs & Power Inc.28,093$0.40M0.0%N/A0.003%
(Data available from 1/1/2016 forward)













Huntington Bancshares (NASDAQ:HBAN) Institutional Ownership Frequently Asked Questions

Who are the institutional owners of Huntington Bancshares?

During the previous two years, 842 institutional investors and hedge funds held shares of Huntington Bancshares. The most heavily invested institutionals were Vanguard Group Inc. ($2.35B), BlackRock Inc. ($1.74B), State Street Corp ($1.10B), FMR LLC ($723.14M), Price T Rowe Associates Inc. MD ($705.37M), Boston Partners ($608.85M), and JPMorgan Chase & Co. ($499.17M).Learn more on HBAN's institutional investors

What percentage of Huntington Bancshares stock is owned by institutional investors?

76.75% of Huntington Bancshares stock is owned by institutional investors. Learn more on HBAN's institutional investor holdings

Which institutional investors have been buying Huntington Bancshares stock?

Of the 736 institutional investors that purchased Huntington Bancshares stock in the last 24 months, the following investors and hedge funds have bought the highest volume of shares: Vanguard Group Inc. ($51.81M), Price T Rowe Associates Inc. MD ($47.56M), BlackRock Inc. ($40.76M), Norges Bank ($24.39M), State Street Corp ($21.45M), Fuller & Thaler Asset Management Inc. ($18.90M), and Invesco Ltd. ($17.74M).

How much institutional buying is happening at Huntington Bancshares?

Institutional investors have bought a total of 555,911,716 shares in the last 24 months. This purchase volume represents approximately $7.52B in transactions.

Which Huntington Bancshares institutionals have been selling company stock?

Of the 451 institutional investors that sold Huntington Bancshares stock in the last 24 months, the following investors and hedge funds have sold the highest volume of shares: FMR LLC ($23.36M), Boston Partners ($16.14M), Capital International Investors ($10.67M), Price T Rowe Associates Inc. MD ($10.14M), JPMorgan Chase & Co. ($9.49M), Royal Bank of Canada ($7.22M), and Morgan Stanley ($6.41M).

How much institutional selling is happening at Huntington Bancshares?

Institutional investors have sold a total of 187,955,310 shares in the last 24 months. This volume of shares sold represents approximately $2.64B in transactions.

This page was last updated on 10/23/2021 by MarketBeat.com Staff

Resources

Premium Research Tools

MarketBeat All Access subscribers can access stock screeners, the Idea Engine, data export tools, research reports, and other premium tools.

Discover All Access

Market Data and Calendars

Looking for new stock ideas? Want to see which stocks are moving? View our full suite of financial calendars and market data tables, all for free.

View Market Data

Investing Education and Resources

Receive a free world-class investing education from MarketBeat. Learn about financial terms, types of investments, trading strategies and more.

Financial Terms
Details Here
MarketBeat - Stock Market News and Research Tools logo

MarketBeat empowers individual investors to make better trading decisions by providing real-time financial data and objective market analysis. Whether you’re looking for analyst ratings, corporate buybacks, dividends, earnings, economic reports, financials, insider trades, IPOs, SEC filings or stock splits, MarketBeat has the objective information you need to analyze any stock. Learn more about MarketBeat.

MarketBeat is accredited by the Better Business Bureau

© American Consumer News, LLC dba MarketBeat® 2010-2021. All rights reserved.
326 E 8th St #105, Sioux Falls, SD 57103 | U.S. Based Support Team at [email protected] | (844) 978-6257
MarketBeat does not provide personalized financial advice and does not issue recommendations or offers to buy stock or sell any security.

Our Accessibility Statement | Terms of Service | Do Not Sell My Information

© 2021 Market data provided is at least 10-minutes delayed and hosted by Barchart Solutions. Information is provided 'as-is' and solely for informational purposes, not for trading purposes or advice, and is delayed. To see all exchange delays and terms of use please see disclaimer. Fundamental company data provided by Zacks Investment Research.